sensor_id;sensor_type;location;lat;lon;timestamp;P1;durP1;ratioP1;P2;durP2;ratioP2
32633;SDS011;19043;51.012;5.648;2023-08-01T00:00:07;2.03;;;0.70;;
32633;SDS011;19043;51.012;5.648;2023-08-01T00:02:33;0.85;;;0.35;;
32633;SDS011;19043;51.012;5.648;2023-08-01T00:04:58;0.98;;;0.40;;
32633;SDS011;19043;51.012;5.648;2023-08-01T00:07:25;1.35;;;0.40;;
32633;SDS011;19043;51.012;5.648;2023-08-01T00:09:50;2.22;;;0.88;;
32633;SDS011;19043;51.012;5.648;2023-08-01T00:12:15;1.88;;;0.70;;
32633;SDS011;19043;51.012;5.648;2023-08-01T00:14:41;1.27;;;0.50;;
32633;SDS011;19043;51.012;5.648;2023-08-01T00:17:06;0.63;;;0.30;;
32633;SDS011;19043;51.012;5.648;2023-08-01T00:19:31;1.40;;;0.50;;
32633;SDS011;19043;51.012;5.648;2023-08-01T00:21:56;1.10;;;0.50;;
32633;SDS011;19043;51.012;5.648;2023-08-01T00:24:22;1.60;;;0.70;;
32633;SDS011;19043;51.012;5.648;2023-08-01T00:26:47;1.83;;;0.68;;
32633;SDS011;19043;51.012;5.648;2023-08-01T00:29:12;1.17;;;0.60;;
32633;SDS011;19043;51.012;5.648;2023-08-01T00:31:38;2.15;;;1.00;;
32633;SDS011;19043;51.012;5.648;2023-08-01T00:34:03;1.80;;;1.00;;
32633;SDS011;19043;51.012;5.648;2023-08-01T00:36:28;2.20;;;1.20;;
32633;SDS011;19043;51.012;5.648;2023-08-01T00:38:53;3.05;;;1.60;;
32633;SDS011;19043;51.012;5.648;2023-08-01T00:41:19;3.50;;;1.27;;
32633;SDS011;19043;51.012;5.648;2023-08-01T00:43:44;2.92;;;1.50;;
32633;SDS011;19043;51.012;5.648;2023-08-01T00:46:09;2.57;;;1.53;;
32633;SDS011;19043;51.012;5.648;2023-08-01T00:48:35;3.25;;;1.60;;
32633;SDS011;19043;51.012;5.648;2023-08-01T00:51:02;2.35;;;1.55;;
32633;SDS011;19043;51.012;5.648;2023-08-01T00:53:29;3.35;;;1.70;;
32633;SDS011;19043;51.012;5.648;2023-08-01T00:55:54;3.28;;;1.45;;
32633;SDS011;19043;51.012;5.648;2023-08-01T00:58:20;3.00;;;1.48;;
32633;SDS011;19043;51.012;5.648;2023-08-01T01:00:45;1.98;;;1.10;;
32633;SDS011;19043;51.012;5.648;2023-08-01T01:03:11;3.40;;;1.40;;
32633;SDS011;19043;51.012;5.648;2023-08-01T01:05:36;5.03;;;1.58;;
32633;SDS011;19043;51.012;5.648;2023-08-01T01:08:03;3.38;;;1.92;;
32633;SDS011;19043;51.012;5.648;2023-08-01T01:10:29;3.00;;;1.85;;
32633;SDS011;19043;51.012;5.648;2023-08-01T01:12:55;3.65;;;1.70;;
32633;SDS011;19043;51.012;5.648;2023-08-01T01:15:20;5.28;;;2.08;;
32633;SDS011;19043;51.012;5.648;2023-08-01T01:17:45;3.58;;;1.80;;
32633;SDS011;19043;51.012;5.648;2023-08-01T01:20:11;3.17;;;2.13;;
32633;SDS011;19043;51.012;5.648;2023-08-01T01:22:36;4.40;;;2.30;;
32633;SDS011;19043;51.012;5.648;2023-08-01T01:25:01;3.40;;;1.70;;
32633;SDS011;19043;51.012;5.648;2023-08-01T01:27:28;3.90;;;2.40;;
32633;SDS011;19043;51.012;5.648;2023-08-01T01:29:53;3.45;;;2.03;;
32633;SDS011;19043;51.012;5.648;2023-08-01T01:32:20;4.00;;;2.30;;
32633;SDS011;19043;51.012;5.648;2023-08-01T01:34:45;3.45;;;2.30;;
32633;SDS011;19043;51.012;5.648;2023-08-01T01:37:11;4.43;;;2.08;;
32633;SDS011;19043;51.012;5.648;2023-08-01T01:39:38;5.78;;;1.95;;
32633;SDS011;19043;51.012;5.648;2023-08-01T01:42:03;4.75;;;2.63;;
32633;SDS011;19043;51.012;5.648;2023-08-01T01:44:29;3.80;;;2.22;;
32633;SDS011;19043;51.012;5.648;2023-08-01T01:46:54;4.40;;;2.60;;
32633;SDS011;19043;51.012;5.648;2023-08-01T01:49:19;4.70;;;3.40;;
32633;SDS011;19043;51.012;5.648;2023-08-01T01:51:44;4.90;;;3.80;;
32633;SDS011;19043;51.012;5.648;2023-08-01T01:54:10;6.95;;;3.90;;
32633;SDS011;19043;51.012;5.648;2023-08-01T01:56:35;5.00;;;3.95;;
32633;SDS011;19043;51.012;5.648;2023-08-01T01:59:01;6.80;;;4.30;;
32633;SDS011;19043;51.012;5.648;2023-08-01T02:01:26;6.32;;;4.45;;
32633;SDS011;19043;51.012;5.648;2023-08-01T02:03:51;8.83;;;4.37;;
32633;SDS011;19043;51.012;5.648;2023-08-01T02:06:16;6.05;;;3.92;;
32633;SDS011;19043;51.012;5.648;2023-08-01T02:08:42;7.10;;;4.93;;
32633;SDS011;19043;51.012;5.648;2023-08-01T02:11:07;6.85;;;4.28;;
32633;SDS011;19043;51.012;5.648;2023-08-01T02:13:32;6.73;;;4.90;;
32633;SDS011;19043;51.012;5.648;2023-08-01T02:15:58;7.30;;;5.57;;
32633;SDS011;19043;51.012;5.648;2023-08-01T02:18:23;6.78;;;4.93;;
32633;SDS011;19043;51.012;5.648;2023-08-01T02:20:48;9.00;;;6.47;;
32633;SDS011;19043;51.012;5.648;2023-08-01T02:23:14;6.15;;;4.88;;
32633;SDS011;19043;51.012;5.648;2023-08-01T02:25:39;6.77;;;5.67;;
32633;SDS011;19043;51.012;5.648;2023-08-01T02:28:05;7.32;;;5.47;;
32633;SDS011;19043;51.012;5.648;2023-08-01T02:30:30;7.47;;;5.72;;
32633;SDS011;19043;51.012;5.648;2023-08-01T02:32:55;8.37;;;5.17;;
32633;SDS011;19043;51.012;5.648;2023-08-01T02:35:21;7.40;;;6.07;;
32633;SDS011;19043;51.012;5.648;2023-08-01T02:37:46;10.63;;;6.40;;
32633;SDS011;19043;51.012;5.648;2023-08-01T02:40:12;9.83;;;5.97;;
32633;SDS011;19043;51.012;5.648;2023-08-01T02:42:37;9.15;;;6.32;;
32633;SDS011;19043;51.012;5.648;2023-08-01T02:45:02;7.90;;;6.22;;
32633;SDS011;19043;51.012;5.648;2023-08-01T02:47:28;9.13;;;7.05;;
32633;SDS011;19043;51.012;5.648;2023-08-01T02:49:53;8.47;;;6.03;;
32633;SDS011;19043;51.012;5.648;2023-08-01T02:52:18;7.88;;;6.03;;
32633;SDS011;19043;51.012;5.648;2023-08-01T02:54:44;11.10;;;7.47;;
32633;SDS011;19043;51.012;5.648;2023-08-01T02:57:09;11.20;;;6.70;;
32633;SDS011;19043;51.012;5.648;2023-08-01T02:59:34;9.48;;;7.10;;
32633;SDS011;19043;51.012;5.648;2023-08-01T03:01:59;7.53;;;6.55;;
32633;SDS011;19043;51.012;5.648;2023-08-01T03:04:25;9.02;;;7.07;;
32633;SDS011;19043;51.012;5.648;2023-08-01T03:06:50;11.93;;;7.40;;
32633;SDS011;19043;51.012;5.648;2023-08-01T03:09:15;10.13;;;7.22;;
32633;SDS011;19043;51.012;5.648;2023-08-01T03:11:41;10.98;;;7.35;;
32633;SDS011;19043;51.012;5.648;2023-08-01T03:14:06;8.95;;;6.88;;
32633;SDS011;19043;51.012;5.648;2023-08-01T03:16:31;7.68;;;6.82;;
32633;SDS011;19043;51.012;5.648;2023-08-01T03:18:57;11.00;;;8.35;;
32633;SDS011;19043;51.012;5.648;2023-08-01T03:21:22;10.50;;;8.07;;
32633;SDS011;19043;51.012;5.648;2023-08-01T03:23:47;10.35;;;7.10;;
32633;SDS011;19043;51.012;5.648;2023-08-01T03:26:13;11.03;;;7.13;;
32633;SDS011;19043;51.012;5.648;2023-08-01T03:28:40;11.40;;;7.22;;
32633;SDS011;19043;51.012;5.648;2023-08-01T03:31:05;8.07;;;6.77;;
32633;SDS011;19043;51.012;5.648;2023-08-01T03:33:32;11.40;;;7.50;;
32633;SDS011;19043;51.012;5.648;2023-08-01T03:35:57;13.40;;;7.45;;
32633;SDS011;19043;51.012;5.648;2023-08-01T03:38:22;8.52;;;6.80;;
32633;SDS011;19043;51.012;5.648;2023-08-01T03:40:48;9.40;;;6.93;;
32633;SDS011;19043;51.012;5.648;2023-08-01T03:43:13;8.13;;;7.18;;
32633;SDS011;19043;51.012;5.648;2023-08-01T03:45:39;8.27;;;7.32;;
32633;SDS011;19043;51.012;5.648;2023-08-01T03:48:04;10.75;;;6.97;;
32633;SDS011;19043;51.012;5.648;2023-08-01T03:50:29;9.15;;;6.78;;
32633;SDS011;19043;51.012;5.648;2023-08-01T03:52:55;9.90;;;7.73;;
32633;SDS011;19043;51.012;5.648;2023-08-01T03:55:20;10.68;;;7.45;;
32633;SDS011;19043;51.012;5.648;2023-08-01T03:57:45;8.93;;;7.97;;
32633;SDS011;19043;51.012;5.648;2023-08-01T04:00:10;9.50;;;8.15;;
32633;SDS011;19043;51.012;5.648;2023-08-01T04:02:41;11.63;;;8.70;;
32633;SDS011;19043;51.012;5.648;2023-08-01T04:05:07;11.68;;;8.77;;
32633;SDS011;19043;51.012;5.648;2023-08-01T04:07:33;11.15;;;8.48;;
32633;SDS011;19043;51.012;5.648;2023-08-01T04:09:59;11.55;;;8.02;;
32633;SDS011;19043;51.012;5.648;2023-08-01T04:12:24;10.27;;;7.73;;
32633;SDS011;19043;51.012;5.648;2023-08-01T04:14:49;12.70;;;8.37;;
32633;SDS011;19043;51.012;5.648;2023-08-01T04:17:14;16.38;;;8.77;;
32633;SDS011;19043;51.012;5.648;2023-08-01T04:19:39;10.90;;;7.75;;
32633;SDS011;19043;51.012;5.648;2023-08-01T04:22:05;14.80;;;7.93;;
32633;SDS011;19043;51.012;5.648;2023-08-01T04:24:30;10.77;;;8.68;;
32633;SDS011;19043;51.012;5.648;2023-08-01T04:26:56;11.02;;;8.10;;
32633;SDS011;19043;51.012;5.648;2023-08-01T04:29:21;16.63;;;9.07;;
32633;SDS011;19043;51.012;5.648;2023-08-01T04:31:46;10.43;;;8.10;;
32633;SDS011;19043;51.012;5.648;2023-08-01T04:34:11;11.70;;;8.27;;
32633;SDS011;19043;51.012;5.648;2023-08-01T04:36:37;16.00;;;8.87;;
32633;SDS011;19043;51.012;5.648;2023-08-01T04:39:02;15.40;;;8.30;;
32633;SDS011;19043;51.012;5.648;2023-08-01T04:41:27;11.75;;;8.63;;
32633;SDS011;19043;51.012;5.648;2023-08-01T04:43:53;11.73;;;7.60;;
32633;SDS011;19043;51.012;5.648;2023-08-01T04:46:18;11.23;;;7.65;;
32633;SDS011;19043;51.012;5.648;2023-08-01T04:48:43;11.35;;;7.95;;
32633;SDS011;19043;51.012;5.648;2023-08-01T04:51:08;12.73;;;9.00;;
32633;SDS011;19043;51.012;5.648;2023-08-01T04:53:34;9.65;;;7.85;;
32633;SDS011;19043;51.012;5.648;2023-08-01T04:55:59;11.57;;;8.45;;
32633;SDS011;19043;51.012;5.648;2023-08-01T04:58:24;18.00;;;8.45;;
32633;SDS011;19043;51.012;5.648;2023-08-01T05:00:49;11.37;;;7.93;;
32633;SDS011;19043;51.012;5.648;2023-08-01T05:03:14;11.67;;;8.00;;
32633;SDS011;19043;51.012;5.648;2023-08-01T05:05:40;13.43;;;7.80;;
32633;SDS011;19043;51.012;5.648;2023-08-01T05:08:05;18.07;;;8.40;;
32633;SDS011;19043;51.012;5.648;2023-08-01T05:10:30;10.03;;;7.60;;
32633;SDS011;19043;51.012;5.648;2023-08-01T05:12:55;14.00;;;8.67;;
32633;SDS011;19043;51.012;5.648;2023-08-01T05:15:21;11.05;;;7.78;;
32633;SDS011;19043;51.012;5.648;2023-08-01T05:17:46;10.03;;;7.83;;
32633;SDS011;19043;51.012;5.648;2023-08-01T05:20:11;13.25;;;8.63;;
32633;SDS011;19043;51.012;5.648;2023-08-01T05:22:36;15.90;;;8.20;;
32633;SDS011;19043;51.012;5.648;2023-08-01T05:25:02;12.30;;;8.43;;
32633;SDS011;19043;51.012;5.648;2023-08-01T05:27:28;13.13;;;7.97;;
32633;SDS011;19043;51.012;5.648;2023-08-01T05:29:54;8.98;;;7.90;;
32633;SDS011;19043;51.012;5.648;2023-08-01T05:32:19;10.53;;;7.87;;
32633;SDS011;19043;51.012;5.648;2023-08-01T05:34:44;11.07;;;8.43;;
32633;SDS011;19043;51.012;5.648;2023-08-01T05:37:09;11.38;;;10.07;;
32633;SDS011;19043;51.012;5.648;2023-08-01T05:39:34;11.17;;;8.93;;
32633;SDS011;19043;51.012;5.648;2023-08-01T05:42:00;13.43;;;9.35;;
32633;SDS011;19043;51.012;5.648;2023-08-01T05:44:25;9.60;;;8.53;;
32633;SDS011;19043;51.012;5.648;2023-08-01T05:46:50;12.20;;;9.60;;
32633;SDS011;19043;51.012;5.648;2023-08-01T05:49:15;14.70;;;8.95;;
32633;SDS011;19043;51.012;5.648;2023-08-01T05:51:41;16.80;;;9.18;;
32633;SDS011;19043;51.012;5.648;2023-08-01T05:54:06;10.02;;;7.68;;
32633;SDS011;19043;51.012;5.648;2023-08-01T05:56:31;11.90;;;8.65;;
32633;SDS011;19043;51.012;5.648;2023-08-01T05:58:57;14.60;;;7.93;;
32633;SDS011;19043;51.012;5.648;2023-08-01T06:01:22;12.25;;;8.30;;
32633;SDS011;19043;51.012;5.648;2023-08-01T06:03:47;8.88;;;7.97;;
32633;SDS011;19043;51.012;5.648;2023-08-01T06:06:13;12.90;;;8.65;;
32633;SDS011;19043;51.012;5.648;2023-08-01T06:08:38;12.02;;;8.50;;
32633;SDS011;19043;51.012;5.648;2023-08-01T06:11:03;10.13;;;7.72;;
32633;SDS011;19043;51.012;5.648;2023-08-01T06:13:28;10.17;;;7.77;;
32633;SDS011;19043;51.012;5.648;2023-08-01T06:15:53;16.17;;;7.70;;
32633;SDS011;19043;51.012;5.648;2023-08-01T06:18:19;11.88;;;7.57;;
32633;SDS011;19043;51.012;5.648;2023-08-01T06:20:44;8.97;;;6.83;;
32633;SDS011;19043;51.012;5.648;2023-08-01T06:23:09;15.00;;;7.03;;
32633;SDS011;19043;51.012;5.648;2023-08-01T06:25:35;11.80;;;7.13;;
32633;SDS011;19043;51.012;5.648;2023-08-01T06:28:00;14.00;;;6.90;;
32633;SDS011;19043;51.012;5.648;2023-08-01T06:30:25;14.57;;;7.43;;
32633;SDS011;19043;51.012;5.648;2023-08-01T06:32:50;9.45;;;6.60;;
32633;SDS011;19043;51.012;5.648;2023-08-01T06:35:16;9.85;;;6.22;;
32633;SDS011;19043;51.012;5.648;2023-08-01T06:37:41;8.90;;;7.05;;
32633;SDS011;19043;51.012;5.648;2023-08-01T06:40:06;10.18;;;6.75;;
32633;SDS011;19043;51.012;5.648;2023-08-01T06:42:32;13.13;;;7.70;;
32633;SDS011;19043;51.012;5.648;2023-08-01T06:44:58;9.57;;;6.57;;
32633;SDS011;19043;51.012;5.648;2023-08-01T06:47:23;14.00;;;7.10;;
32633;SDS011;19043;51.012;5.648;2023-08-01T06:49:48;9.38;;;6.28;;
32633;SDS011;19043;51.012;5.648;2023-08-01T06:52:14;11.60;;;7.75;;
32633;SDS011;19043;51.012;5.648;2023-08-01T06:54:39;8.37;;;6.37;;
32633;SDS011;19043;51.012;5.648;2023-08-01T06:57:05;18.98;;;6.68;;
32633;SDS011;19043;51.012;5.648;2023-08-01T06:59:30;10.10;;;6.20;;
32633;SDS011;19043;51.012;5.648;2023-08-01T07:01:56;9.10;;;6.40;;
32633;SDS011;19043;51.012;5.648;2023-08-01T07:04:21;10.50;;;5.97;;
32633;SDS011;19043;51.012;5.648;2023-08-01T07:06:46;8.38;;;6.00;;
32633;SDS011;19043;51.012;5.648;2023-08-01T07:09:11;9.35;;;6.03;;
32633;SDS011;19043;51.012;5.648;2023-08-01T07:11:37;11.05;;;6.05;;
32633;SDS011;19043;51.012;5.648;2023-08-01T07:14:02;12.70;;;5.47;;
32633;SDS011;19043;51.012;5.648;2023-08-01T07:16:27;13.47;;;6.43;;
32633;SDS011;19043;51.012;5.648;2023-08-01T07:18:52;13.52;;;6.15;;
32633;SDS011;19043;51.012;5.648;2023-08-01T07:21:18;10.23;;;5.47;;
32633;SDS011;19043;51.012;5.648;2023-08-01T07:23:43;9.40;;;6.28;;
32633;SDS011;19043;51.012;5.648;2023-08-01T07:26:08;10.32;;;5.90;;
32633;SDS011;19043;51.012;5.648;2023-08-01T07:28:33;8.57;;;5.32;;
32633;SDS011;19043;51.012;5.648;2023-08-01T07:30:59;7.57;;;5.32;;
32633;SDS011;19043;51.012;5.648;2023-08-01T07:33:25;7.68;;;5.68;;
32633;SDS011;19043;51.012;5.648;2023-08-01T07:35:50;10.48;;;5.50;;
32633;SDS011;19043;51.012;5.648;2023-08-01T07:38:16;8.50;;;5.43;;
32633;SDS011;19043;51.012;5.648;2023-08-01T07:40:41;10.98;;;6.50;;
32633;SDS011;19043;51.012;5.648;2023-08-01T07:43:06;9.87;;;5.53;;
32633;SDS011;19043;51.012;5.648;2023-08-01T07:45:34;7.85;;;4.78;;
32633;SDS011;19043;51.012;5.648;2023-08-01T07:48:00;8.13;;;5.40;;
32633;SDS011;19043;51.012;5.648;2023-08-01T07:50:25;7.90;;;4.97;;
32633;SDS011;19043;51.012;5.648;2023-08-01T07:52:51;6.90;;;4.57;;
32633;SDS011;19043;51.012;5.648;2023-08-01T07:55:16;12.18;;;5.40;;
32633;SDS011;19043;51.012;5.648;2023-08-01T07:57:43;10.48;;;6.00;;
32633;SDS011;19043;51.012;5.648;2023-08-01T08:00:08;6.85;;;5.05;;
32633;SDS011;19043;51.012;5.648;2023-08-01T08:02:34;7.40;;;4.75;;
32633;SDS011;19043;51.012;5.648;2023-08-01T08:05:00;6.53;;;4.77;;
32633;SDS011;19043;51.012;5.648;2023-08-01T08:07:25;6.53;;;4.90;;
32633;SDS011;19043;51.012;5.648;2023-08-01T08:09:50;12.57;;;4.97;;
32633;SDS011;19043;51.012;5.648;2023-08-01T08:12:15;7.43;;;5.40;;
32633;SDS011;19043;51.012;5.648;2023-08-01T08:14:41;7.90;;;4.73;;
32633;SDS011;19043;51.012;5.648;2023-08-01T08:17:06;11.20;;;4.60;;
32633;SDS011;19043;51.012;5.648;2023-08-01T08:19:31;11.23;;;5.20;;
32633;SDS011;19043;51.012;5.648;2023-08-01T08:21:56;7.60;;;5.10;;
32633;SDS011;19043;51.012;5.648;2023-08-01T08:24:22;11.32;;;5.30;;
32633;SDS011;19043;51.012;5.648;2023-08-01T08:26:47;8.65;;;4.72;;
32633;SDS011;19043;51.012;5.648;2023-08-01T08:29:12;8.15;;;4.90;;
32633;SDS011;19043;51.012;5.648;2023-08-01T08:31:37;7.40;;;4.80;;
32633;SDS011;19043;51.012;5.648;2023-08-01T08:34:03;8.20;;;4.80;;
32633;SDS011;19043;51.012;5.648;2023-08-01T08:36:28;7.27;;;4.47;;
32633;SDS011;19043;51.012;5.648;2023-08-01T08:38:53;10.80;;;4.73;;
32633;SDS011;19043;51.012;5.648;2023-08-01T08:41:20;6.68;;;4.40;;
32633;SDS011;19043;51.012;5.648;2023-08-01T08:43:45;6.65;;;4.22;;
32633;SDS011;19043;51.012;5.648;2023-08-01T08:46:12;9.35;;;4.93;;
32633;SDS011;19043;51.012;5.648;2023-08-01T08:48:40;9.18;;;4.65;;
32633;SDS011;19043;51.012;5.648;2023-08-01T08:51:06;7.68;;;4.30;;
32633;SDS011;19043;51.012;5.648;2023-08-01T08:53:32;7.03;;;4.22;;
32633;SDS011;19043;51.012;5.648;2023-08-01T08:55:59;7.60;;;4.53;;
32633;SDS011;19043;51.012;5.648;2023-08-01T08:58:24;5.60;;;3.60;;
32633;SDS011;19043;51.012;5.648;2023-08-01T09:00:50;7.97;;;4.25;;
32633;SDS011;19043;51.012;5.648;2023-08-01T09:03:15;9.70;;;4.13;;
32633;SDS011;19043;51.012;5.648;2023-08-01T09:05:44;7.13;;;4.18;;
32633;SDS011;19043;51.012;5.648;2023-08-01T09:08:13;5.25;;;3.88;;
32633;SDS011;19043;51.012;5.648;2023-08-01T09:10:40;6.10;;;4.13;;
32633;SDS011;19043;51.012;5.648;2023-08-01T09:13:07;8.60;;;3.60;;
32633;SDS011;19043;51.012;5.648;2023-08-01T09:15:32;7.55;;;3.78;;
32633;SDS011;19043;51.012;5.648;2023-08-01T09:17:57;8.40;;;3.30;;
32633;SDS011;19043;51.012;5.648;2023-08-01T09:20:28;9.68;;;3.55;;
32633;SDS011;19043;51.012;5.648;2023-08-01T09:22:53;5.55;;;3.45;;
32633;SDS011;19043;51.012;5.648;2023-08-01T09:25:18;10.18;;;3.95;;
32633;SDS011;19043;51.012;5.648;2023-08-01T09:27:44;5.72;;;3.22;;
32633;SDS011;19043;51.012;5.648;2023-08-01T09:30:10;6.07;;;3.43;;
32633;SDS011;19043;51.012;5.648;2023-08-01T09:32:36;9.30;;;3.80;;
32633;SDS011;19043;51.012;5.648;2023-08-01T09:35:01;4.90;;;2.83;;
32633;SDS011;19043;51.012;5.648;2023-08-01T09:37:26;5.93;;;3.20;;
32633;SDS011;19043;51.012;5.648;2023-08-01T09:39:55;4.10;;;2.73;;
32633;SDS011;19043;51.012;5.648;2023-08-01T09:42:23;6.65;;;3.78;;
32633;SDS011;19043;51.012;5.648;2023-08-01T09:44:49;5.80;;;2.97;;
32633;SDS011;19043;51.012;5.648;2023-08-01T09:47:14;6.50;;;3.45;;
32633;SDS011;19043;51.012;5.648;2023-08-01T09:49:48;8.20;;;3.05;;
32633;SDS011;19043;51.012;5.648;2023-08-01T09:52:26;5.78;;;2.88;;
32633;SDS011;19043;51.012;5.648;2023-08-01T09:54:51;4.95;;;2.72;;
32633;SDS011;19043;51.012;5.648;2023-08-01T09:57:16;5.90;;;3.20;;
32633;SDS011;19043;51.012;5.648;2023-08-01T09:59:42;4.43;;;2.40;;
32633;SDS011;19043;51.012;5.648;2023-08-01T10:02:07;7.50;;;3.03;;
32633;SDS011;19043;51.012;5.648;2023-08-01T10:04:36;5.40;;;3.15;;
32633;SDS011;19043;51.012;5.648;2023-08-01T10:07:13;7.35;;;3.05;;
32633;SDS011;19043;51.012;5.648;2023-08-01T10:09:40;9.25;;;3.38;;
32633;SDS011;19043;51.012;5.648;2023-08-01T10:12:07;5.10;;;2.97;;
32633;SDS011;19043;51.012;5.648;2023-08-01T10:14:34;5.57;;;2.80;;
32633;SDS011;19043;51.012;5.648;2023-08-01T10:17:00;8.45;;;2.90;;
32633;SDS011;19043;51.012;5.648;2023-08-01T10:19:26;7.30;;;2.97;;
32633;SDS011;19043;51.012;5.648;2023-08-01T10:21:52;8.13;;;3.08;;
32633;SDS011;19043;51.012;5.648;2023-08-01T10:24:19;4.25;;;2.50;;
32633;SDS011;19043;51.012;5.648;2023-08-01T10:26:45;6.72;;;2.95;;
32633;SDS011;19043;51.012;5.648;2023-08-01T10:29:11;4.43;;;2.60;;
32633;SDS011;19043;51.012;5.648;2023-08-01T10:31:36;4.07;;;2.30;;
32633;SDS011;19043;51.012;5.648;2023-08-01T10:34:06;6.88;;;2.60;;
32633;SDS011;19043;51.012;5.648;2023-08-01T10:36:31;5.85;;;2.70;;
32633;SDS011;19043;51.012;5.648;2023-08-01T10:38:58;4.32;;;2.20;;
32633;SDS011;19043;51.012;5.648;2023-08-01T10:41:31;6.82;;;2.25;;
32633;SDS011;19043;51.012;5.648;2023-08-01T10:44:06;7.50;;;2.35;;
32633;SDS011;19043;51.012;5.648;2023-08-01T10:46:50;4.47;;;2.15;;
32633;SDS011;19043;51.012;5.648;2023-08-01T10:49:17;3.70;;;2.42;;
32633;SDS011;19043;51.012;5.648;2023-08-01T10:51:42;3.50;;;1.90;;
32633;SDS011;19043;51.012;5.648;2023-08-01T10:54:23;5.72;;;2.50;;
32633;SDS011;19043;51.012;5.648;2023-08-01T10:56:50;2.78;;;1.70;;
32633;SDS011;19043;51.012;5.648;2023-08-01T10:59:16;5.20;;;2.53;;
32633;SDS011;19043;51.012;5.648;2023-08-01T11:01:45;3.38;;;1.95;;
32633;SDS011;19043;51.012;5.648;2023-08-01T11:04:21;5.22;;;2.15;;
32633;SDS011;19043;51.012;5.648;2023-08-01T11:06:47;2.92;;;1.40;;
32633;SDS011;19043;51.012;5.648;2023-08-01T11:09:23;3.30;;;1.70;;
32633;SDS011;19043;51.012;5.648;2023-08-01T11:11:57;3.85;;;1.63;;
32633;SDS011;19043;51.012;5.648;2023-08-01T11:14:23;3.05;;;1.88;;
32633;SDS011;19043;51.012;5.648;2023-08-01T11:16:49;3.42;;;1.42;;
32633;SDS011;19043;51.012;5.648;2023-08-01T11:19:22;3.88;;;2.10;;
32633;SDS011;19043;51.012;5.648;2023-08-01T11:21:47;4.88;;;2.35;;
32633;SDS011;19043;51.012;5.648;2023-08-01T11:24:12;4.78;;;2.53;;
32633;SDS011;19043;51.012;5.648;2023-08-01T11:26:45;2.78;;;1.58;;
32633;SDS011;19043;51.012;5.648;2023-08-01T11:29:11;4.28;;;1.90;;
32633;SDS011;19043;51.012;5.648;2023-08-01T11:31:36;4.13;;;2.00;;
32633;SDS011;19043;51.012;5.648;2023-08-01T11:34:02;5.38;;;1.85;;
32633;SDS011;19043;51.012;5.648;2023-08-01T11:36:28;3.17;;;1.67;;
32633;SDS011;19043;51.012;5.648;2023-08-01T11:38:54;4.32;;;2.10;;
32633;SDS011;19043;51.012;5.648;2023-08-01T11:41:20;3.58;;;2.28;;
32633;SDS011;19043;51.012;5.648;2023-08-01T11:43:46;4.25;;;2.08;;
32633;SDS011;19043;51.012;5.648;2023-08-01T11:46:11;3.67;;;1.83;;
32633;SDS011;19043;51.012;5.648;2023-08-01T11:48:37;5.35;;;1.90;;
32633;SDS011;19043;51.012;5.648;2023-08-01T11:51:02;2.90;;;1.67;;
32633;SDS011;19043;51.012;5.648;2023-08-01T11:53:28;4.90;;;2.15;;
32633;SDS011;19043;51.012;5.648;2023-08-01T11:55:54;4.43;;;1.50;;
32633;SDS011;19043;51.012;5.648;2023-08-01T11:58:33;4.40;;;2.30;;
32633;SDS011;19043;51.012;5.648;2023-08-01T12:01:09;3.42;;;2.25;;
32633;SDS011;19043;51.012;5.648;2023-08-01T12:03:56;2.80;;;1.73;;
32633;SDS011;19043;51.012;5.648;2023-08-01T12:06:22;6.03;;;1.70;;
32633;SDS011;19043;51.012;5.648;2023-08-01T12:08:48;3.78;;;2.00;;
32633;SDS011;19043;51.012;5.648;2023-08-01T12:11:26;4.10;;;1.95;;
32633;SDS011;19043;51.012;5.648;2023-08-01T12:16:45;3.53;;;1.77;;
32633;SDS011;19043;51.012;5.648;2023-08-01T12:19:10;3.78;;;1.95;;
32633;SDS011;19043;51.012;5.648;2023-08-01T12:21:36;3.78;;;2.28;;
32633;SDS011;19043;51.012;5.648;2023-08-01T12:24:02;3.85;;;1.85;;
32633;SDS011;19043;51.012;5.648;2023-08-01T12:26:28;6.25;;;2.17;;
32633;SDS011;19043;51.012;5.648;2023-08-01T12:28:54;3.90;;;1.88;;
32633;SDS011;19043;51.012;5.648;2023-08-01T12:31:20;5.03;;;2.42;;
32633;SDS011;19043;51.012;5.648;2023-08-01T12:33:45;5.43;;;2.25;;
32633;SDS011;19043;51.012;5.648;2023-08-01T12:36:11;4.82;;;2.10;;
32633;SDS011;19043;51.012;5.648;2023-08-01T12:38:36;3.58;;;1.83;;
32633;SDS011;19043;51.012;5.648;2023-08-01T12:41:02;4.73;;;2.20;;
32633;SDS011;19043;51.012;5.648;2023-08-01T12:43:27;7.17;;;1.87;;
32633;SDS011;19043;51.012;5.648;2023-08-01T12:45:52;4.03;;;2.03;;
32633;SDS011;19043;51.012;5.648;2023-08-01T12:48:18;4.22;;;2.10;;
32633;SDS011;19043;51.012;5.648;2023-08-01T12:50:44;2.97;;;1.75;;
32633;SDS011;19043;51.012;5.648;2023-08-01T12:53:10;4.60;;;1.67;;
32633;SDS011;19043;51.012;5.648;2023-08-01T12:55:35;4.35;;;2.17;;
32633;SDS011;19043;51.012;5.648;2023-08-01T12:58:01;5.38;;;1.90;;
32633;SDS011;19043;51.012;5.648;2023-08-01T13:00:26;4.13;;;1.73;;
32633;SDS011;19043;51.012;5.648;2023-08-01T13:02:53;4.28;;;2.13;;
32633;SDS011;19043;51.012;5.648;2023-08-01T13:05:18;5.03;;;1.97;;
32633;SDS011;19043;51.012;5.648;2023-08-01T13:07:43;2.78;;;1.40;;
32633;SDS011;19043;51.012;5.648;2023-08-01T13:10:09;3.40;;;1.65;;
32633;SDS011;19043;51.012;5.648;2023-08-01T13:12:34;3.20;;;1.50;;
32633;SDS011;19043;51.012;5.648;2023-08-01T13:14:59;3.47;;;1.30;;
32633;SDS011;19043;51.012;5.648;2023-08-01T13:17:24;3.33;;;1.50;;
32633;SDS011;19043;51.012;5.648;2023-08-01T13:19:50;4.10;;;1.57;;
32633;SDS011;19043;51.012;5.648;2023-08-01T13:22:15;4.40;;;1.90;;
32633;SDS011;19043;51.012;5.648;2023-08-01T13:24:40;3.70;;;1.27;;
32633;SDS011;19043;51.012;5.648;2023-08-01T13:27:06;3.28;;;1.33;;
32633;SDS011;19043;51.012;5.648;2023-08-01T13:29:31;8.40;;;1.45;;
32633;SDS011;19043;51.012;5.648;2023-08-01T13:31:56;4.60;;;1.60;;
32633;SDS011;19043;51.012;5.648;2023-08-01T13:34:21;3.77;;;1.70;;
32633;SDS011;19043;51.012;5.648;2023-08-01T13:36:47;2.50;;;1.00;;
32633;SDS011;19043;51.012;5.648;2023-08-01T13:39:12;3.93;;;1.40;;
32633;SDS011;19043;51.012;5.648;2023-08-01T13:41:37;7.32;;;1.83;;
32633;SDS011;19043;51.012;5.648;2023-08-01T13:44:03;2.75;;;1.30;;
32633;SDS011;19043;51.012;5.648;2023-08-01T13:46:28;3.28;;;1.40;;
32633;SDS011;19043;51.012;5.648;2023-08-01T13:48:53;3.83;;;1.42;;
32633;SDS011;19043;51.012;5.648;2023-08-01T13:51:18;4.03;;;1.50;;
32633;SDS011;19043;51.012;5.648;2023-08-01T13:53:44;4.60;;;1.60;;
32633;SDS011;19043;51.012;5.648;2023-08-01T13:56:09;3.45;;;1.48;;
32633;SDS011;19043;51.012;5.648;2023-08-01T13:58:35;2.97;;;1.48;;
32633;SDS011;19043;51.012;5.648;2023-08-01T14:01:04;3.67;;;1.38;;
32633;SDS011;19043;51.012;5.648;2023-08-01T14:03:30;3.88;;;1.70;;
32633;SDS011;19043;51.012;5.648;2023-08-01T14:05:55;3.30;;;1.63;;
32633;SDS011;19043;51.012;5.648;2023-08-01T14:08:21;2.67;;;1.55;;
32633;SDS011;19043;51.012;5.648;2023-08-01T14:10:46;3.35;;;1.65;;
32633;SDS011;19043;51.012;5.648;2023-08-01T14:13:12;2.47;;;1.20;;
32633;SDS011;19043;51.012;5.648;2023-08-01T14:15:37;2.17;;;1.03;;
32633;SDS011;19043;51.012;5.648;2023-08-01T14:18:02;2.40;;;1.30;;
32633;SDS011;19043;51.012;5.648;2023-08-01T14:20:27;6.40;;;1.65;;
32633;SDS011;19043;51.012;5.648;2023-08-01T14:22:53;3.20;;;1.63;;
32633;SDS011;19043;51.012;5.648;2023-08-01T14:25:18;3.67;;;1.50;;
32633;SDS011;19043;51.012;5.648;2023-08-01T14:27:43;2.60;;;1.37;;
32633;SDS011;19043;51.012;5.648;2023-08-01T14:30:08;4.37;;;1.73;;
32633;SDS011;19043;51.012;5.648;2023-08-01T14:32:36;3.80;;;1.55;;
32633;SDS011;19043;51.012;5.648;2023-08-01T14:35:01;3.20;;;1.40;;
32633;SDS011;19043;51.012;5.648;2023-08-01T14:37:27;2.40;;;1.17;;